^^
Your Local Weather - Clay, NY Station Historical Data
Daily Summary for November 30, 2017 Units:  English    Metric   Both
« Previous Day
Next Day »
Daily Weekly Monthly Yearly Custom
  High: Low: Average:
Temperature: 49.2 °F 24.4 °F 38 °F
Dew Point: 38.0 °F 21.6 °F 29.6 °F
Humidity: 90% 47% 74%
Wind Speed: 8.0mph 0.0mph 2.5mph
Wind Gust: 17.0mph - -
Wind- - SSE
Pressure: 30.30 in 29.84 in -
Precipitation: 0.10 in    
Historical Graphs
 
 
Tabular Data for November 30, 2017
Time Temperature Dew Point Pressure Wind Wind Speed Wind Gust Humidity Rainfall Rate (Hourly) solar
00:06 26.3 °F 23.0 °F 30.30 in Calm     87% 0.00 in 0 W/m2
00:12 26.1 °F 22.8 °F 30.29 in Calm     87% 0.00 in 0 W/m2
00:18 25.9 °F 22.6 °F 30.29 in Calm     87% 0.00 in 0 W/m2
00:24 25.8 °F 22.5 °F 30.29 in Calm     87% 0.00 in 0 W/m2
00:30 25.9 °F 22.6 °F 30.28 in Calm     87% 0.00 in 0 W/m2
00:42 26.0 °F 22.9 °F 30.29 in Calm     88% 0.00 in 0 W/m2
00:48 26.2 °F 23.1 °F 30.29 in Calm     88% 0.00 in 0 W/m2
00:54 26.8 °F 23.7 °F 30.28 in Calm     88% 0.00 in 0 W/m2
01:12 27.3 °F 24.5 °F 30.28 in Calm     89% 0.00 in 0 W/m2
01:18 27.3 °F 24.5 °F 30.28 in Calm   1.0 mph 89% 0.00 in 0 W/m2
01:24 27.5 °F 24.7 °F 30.26 in WNW 1.0 mph 2.0 mph 89% 0.00 in 0 W/m2
01:30 27.6 °F 24.8 °F 30.26 in Calm     89% 0.00 in 0 W/m2
01:36 27.6 °F 24.8 °F 30.26 in Calm     89% 0.00 in 0 W/m2
01:42 27.4 °F 24.6 °F 30.26 in Calm   3.0 mph 89% 0.00 in 0 W/m2
01:48 27.4 °F 24.3 °F 30.26 in Calm   3.0 mph 88% 0.00 in 0 W/m2
01:54 27.4 °F 24.3 °F 30.26 in Calm   2.0 mph 88% 0.00 in 0 W/m2
02:00 27.3 °F 24.2 °F 30.26 in Calm     88% 0.00 in 0 W/m2
02:12 27.4 °F 24.0 °F 30.27 in Calm     87% 0.00 in 0 W/m2
02:24 26.9 °F 23.5 °F 30.27 in Calm     87% 0.00 in 0 W/m2
02:30 26.7 °F 23.4 °F 30.26 in Calm     87% 0.00 in 0 W/m2
02:56 26.5 °F 23.4 °F 30.25 in Calm     88% 0.00 in 0 W/m2
03:02 26.3 °F 23.2 °F 30.24 in Calm   1.0 mph 88% 0.00 in 0 W/m2
03:08 26.1 °F 23.0 °F 30.24 in Calm   1.0 mph 88% 0.00 in 0 W/m2
03:14 25.9 °F 22.8 °F 30.24 in Calm     88% 0.00 in 0 W/m2
03:20 25.9 °F 22.8 °F 30.23 in Calm     88% 0.00 in 0 W/m2
03:26 25.8 °F 22.7 °F 30.23 in Calm     88% 0.00 in 0 W/m2
03:32 25.7 °F 22.6 °F 30.24 in Calm     88% 0.00 in 0 W/m2
03:38 25.8 °F 22.7 °F 30.24 in Calm   1.0 mph 88% 0.00 in 0 W/m2
03:50 25.8 °F 23.0 °F 30.24 in Calm     89% 0.00 in 0 W/m2
03:56 25.6 °F 22.5 °F 30.23 in Calm     88% 0.00 in 0 W/m2
04:02 25.6 °F 22.8 °F 30.23 in Calm     89% 0.00 in 0 W/m2
04:08 25.4 °F 22.6 °F 30.22 in Calm     89% 0.00 in 0 W/m2
04:14 25.2 °F 22.4 °F 30.22 in Calm     89% 0.00 in 0 W/m2
04:20 25.0 °F 22.2 °F 30.22 in Calm     89% 0.00 in 0 W/m2
04:38 24.9 °F 22.1 °F 30.22 in Calm     89% 0.00 in 0 W/m2
04:44 24.6 °F 21.8 °F 30.22 in Calm   2.0 mph 89% 0.00 in 0 W/m2
04:50 24.5 °F 21.7 °F 30.22 in East 1.0 mph 1.0 mph 89% 0.00 in 0 W/m2
04:56 24.4 °F 21.6 °F 30.21 in East 1.0 mph 1.0 mph 89% 0.00 in 0 W/m2
05:02 24.5 °F 22.0 °F 30.20 in Calm   1.0 mph 90% 0.00 in 0 W/m2
05:08 24.8 °F 22.3 °F 30.20 in Calm   2.0 mph 90% 0.00 in 0 W/m2
05:14 24.9 °F 22.4 °F 30.19 in Calm   1.0 mph 90% 0.00 in 0 W/m2
05:20 26.1 °F 23.6 °F 30.19 in SE 1.0 mph 1.0 mph 90% 0.00 in 0 W/m2
05:32 27.8 °F 25.2 °F 30.19 in ESE 2.0 mph 4.0 mph 90% 0.00 in 0 W/m2
05:38 27.9 °F 25.1 °F 30.19 in ESE 1.0 mph 4.0 mph 89% 0.00 in 0 W/m2
05:44 27.8 °F 24.7 °F 30.18 in ESE 1.0 mph 2.0 mph 88% 0.00 in 0 W/m2
05:50 27.9 °F 24.8 °F 30.17 in SE 1.0 mph 2.0 mph 88% 0.00 in 0 W/m2
05:56 28.4 °F 25.0 °F 30.17 in ESE 1.0 mph 2.0 mph 87% 0.00 in 0 W/m2
06:08 28.5 °F 24.6 °F 30.17 in ESE 1.0 mph 3.0 mph 85% 0.00 in 0 W/m2
06:14 28.7 °F 24.8 °F 30.18 in ESE 1.0 mph 1.0 mph 85% 0.00 in 0 W/m2
06:26 28.2 °F 24.0 °F 30.17 in ESE 1.0 mph 2.0 mph 84% 0.00 in 0 W/m2
06:38 27.5 °F 23.3 °F 30.16 in East 1.0 mph 3.0 mph 84% 0.00 in 0 W/m2
07:14 27.0 °F 23.1 °F 30.15 in Calm   2.0 mph 85% 0.00 in 0 W/m2
07:20 26.8 °F 22.9 °F 30.15 in East 1.0 mph 2.0 mph 85% 0.00 in 5 W/m2
07:26 26.7 °F 23.1 °F 30.15 in ESE 1.0 mph 2.0 mph 86% 0.00 in 5 W/m2
07:32 27.0 °F 23.6 °F 30.15 in East 1.0 mph 1.0 mph 87% 0.00 in 9 W/m2
07:38 27.3 °F 23.9 °F 30.14 in East 1.0 mph 2.0 mph 87% 0.00 in 11 W/m2
07:44 27.4 °F 24.0 °F 30.14 in ENE 1.0 mph 2.0 mph 87% 0.00 in 12 W/m2
07:50 27.4 °F 24.0 °F 30.14 in ENE 1.0 mph 1.0 mph 87% 0.00 in 12 W/m2
07:56 27.5 °F 24.1 °F 30.14 in East 1.0 mph 3.0 mph 87% 0.00 in 14 W/m2
08:08 27.4 °F 24.0 °F 30.13 in East 1.0 mph 2.0 mph 87% 0.00 in 21 W/m2
08:14 27.3 °F 23.9 °F 30.13 in East 1.0 mph 1.0 mph 87% 0.00 in 26 W/m2
08:20 27.4 °F 24.3 °F 30.12 in East 1.0 mph 1.0 mph 88% 0.00 in 28 W/m2
08:26 27.6 °F 24.2 °F 30.12 in East 2.0 mph 2.0 mph 87% 0.00 in 47 W/m2
08:38 28.3 °F 24.6 °F 30.13 in ENE 2.0 mph 3.0 mph 86% 0.00 in 113 W/m2
08:44 28.7 °F 25.0 °F 30.13 in ENE 2.0 mph 3.0 mph 86% 0.00 in 90 W/m2
08:50 29.2 °F 25.0 °F 30.13 in ESE 2.0 mph 2.0 mph 84% 0.00 in 137 W/m2
09:10 31.6 °F 25.8 °F 30.11 in ENE 1.0 mph 3.0 mph 79% 0.00 in 283 W/m2
09:16 32.0 °F 25.9 °F 30.11 in East 2.0 mph 3.0 mph 78% 0.00 in 313 W/m2
09:22 33.0 °F 26.9 °F 30.10 in ESE 2.0 mph 4.0 mph 78% 0.00 in 318 W/m2
09:28 33.3 °F 26.5 °F 30.10 in ESE 2.0 mph 6.0 mph 76% 0.00 in 325 W/m2
09:40 33.9 °F 26.5 °F 30.10 in ENE 2.0 mph 2.0 mph 74% 0.00 in 343 W/m2
09:46 34.5 °F 26.7 °F 30.10 in East 3.0 mph 7.0 mph 73% 0.00 in 352 W/m2
09:58 35.9 °F 27.4 °F 30.09 in ENE 3.0 mph 4.0 mph 71% 0.00 in 366 W/m2
10:04 37.0 °F 28.5 °F 30.09 in East 2.0 mph 4.0 mph 71% 0.00 in 374 W/m2
10:10 37.6 °F 28.3 °F 30.09 in ENE 2.0 mph 3.0 mph 69% 0.00 in 381 W/m2
10:16 38.0 °F 28.4 °F 30.08 in East 2.0 mph 5.0 mph 68% 0.00 in 388 W/m2
10:28 39.7 °F 29.6 °F 30.07 in NE 2.0 mph 5.0 mph 67% 0.00 in 406 W/m2
10:34 40.3 °F 29.5 °F 30.06 in East 2.0 mph 3.0 mph 65% 0.00 in 411 W/m2
10:40 42.5 °F 30.4 °F 30.05 in South 2.0 mph 10.0 mph 62% 0.00 in 420 W/m2
10:46 44.5 °F 28.9 °F 30.05 in SSE 4.0 mph 10.0 mph 54% 0.00 in 425 W/m2
10:52 44.8 °F 28.7 °F 30.05 in SE 5.0 mph 6.0 mph 53% 0.00 in 436 W/m2
10:58 45.2 °F 28.6 °F 30.04 in South 5.0 mph 6.0 mph 52% 0.00 in 397 W/m2
11:04 45.1 °F 28.0 °F 30.04 in SSE 5.0 mph 7.0 mph 51% 0.00 in 410 W/m2
11:10 45.4 °F 28.3 °F 30.03 in South 6.0 mph 7.0 mph 51% 0.00 in 441 W/m2
11:16 46.6 °F 29.9 °F 30.02 in SSE 5.0 mph 9.0 mph 52% 0.00 in 459 W/m2
11:22 46.7 °F 28.5 °F 30.02 in ESE 4.0 mph 10.0 mph 49% 0.00 in 446 W/m2
11:28 46.4 °F 28.3 °F 30.01 in SSE 5.0 mph 10.0 mph 49% 0.00 in 334 W/m2
11:34 46.2 °F 28.1 °F 30.01 in SE 5.0 mph 8.0 mph 49% 0.00 in 306 W/m2
11:52 46.6 °F 28.4 °F 30.01 in SSW 6.0 mph 6.0 mph 49% 0.00 in 457 W/m2
11:58 47.2 °F 29.0 °F 30.00 in SE 6.0 mph 8.0 mph 49% 0.00 in 455 W/m2
12:16 47.1 °F 29.4 °F 29.98 in SE 6.0 mph 8.0 mph 50% 0.00 in 269 W/m2
12:22 47.6 °F 29.4 °F 29.98 in SSE 5.0 mph 5.0 mph 49% 0.00 in 452 W/m2
12:28 47.4 °F 28.7 °F 29.97 in SSE 6.0 mph 11.0 mph 48% 0.00 in 285 W/m2
12:34 48.0 °F 30.2 °F 29.96 in SSE 6.0 mph 9.0 mph 50% 0.00 in 401 W/m2
12:40 48.5 °F 30.2 °F 29.96 in SSE 5.0 mph 5.0 mph 49% 0.00 in 346 W/m2
12:46 48.8 °F 30.5 °F 29.95 in South 5.0 mph 6.0 mph 49% 0.00 in 439 W/m2
12:58 48.4 °F 29.6 °F 29.94 in SE 6.0 mph 9.0 mph 48% 0.00 in 202 W/m2
13:04 48.0 °F 29.7 °F 29.93 in SSE 7.0 mph 8.0 mph 49% 0.00 in 199 W/m2
13:10 48.5 °F 29.7 °F 29.93 in SSE 7.0 mph 7.0 mph 48% 0.00 in 390 W/m2
13:22 49.2 °F 29.8 °F 29.91 in SSE 6.0 mph 6.0 mph 47% 0.00 in 144 W/m2
13:28 48.8 °F 30.5 °F 29.91 in South 6.0 mph 11.0 mph 49% 0.00 in 105 W/m2
13:34 48.5 °F 29.7 °F 29.91 in SE 7.0 mph 17.0 mph 48% 0.00 in 51 W/m2
13:40 48.5 °F 30.2 °F 29.91 in SSW 7.0 mph 9.0 mph 49% 0.00 in 51 W/m2
13:46 48.6 °F 30.3 °F 29.91 in SSE 7.0 mph 11.0 mph 49% 0.00 in 90 W/m2
13:52 48.6 °F 30.3 °F 29.90 in SSW 8.0 mph 12.0 mph 49% 0.00 in 51 W/m2
13:58 48.5 °F 30.2 °F 29.90 in SSE 6.0 mph 12.0 mph 49% 0.00 in 26 W/m2
14:04 48.3 °F 30.0 °F 29.90 in SSE 6.0 mph 10.0 mph 49% 0.00 in 14 W/m2
14:16 48.1 °F 30.3 °F 29.90 in South 5.0 mph 9.0 mph 50% 0.00 in 19 W/m2
14:22 48.1 °F 30.3 °F 29.90 in SSE 5.0 mph 8.0 mph 50% 0.00 in 12 W/m2
14:28 48.2 °F 29.9 °F 29.90 in South 5.0 mph 8.0 mph 49% 0.00 in 32 W/m2
14:34 48.2 °F 30.4 °F 29.89 in South 4.0 mph 5.0 mph 50% 0.00 in 28 W/m2
14:40 48.1 °F 30.3 °F 29.88 in SE 3.0 mph 5.0 mph 50% 0.00 in 23 W/m2
14:46 48.2 °F 30.4 °F 29.88 in South 4.0 mph 5.0 mph 50% 0.00 in 18 W/m2
14:52 48.3 °F 30.0 °F 29.88 in SSE 4.0 mph 6.0 mph 49% 0.00 in 32 W/m2
14:58 48.5 °F 30.2 °F 29.88 in South 5.0 mph 10.0 mph 49% 0.00 in 23 W/m2
15:04 48.5 °F 30.2 °F 29.87 in SSE 4.0 mph 5.0 mph 49% 0.00 in 12 W/m2
15:10 48.5 °F 30.2 °F 29.87 in South 4.0 mph 4.0 mph 49% 0.00 in 7 W/m2
15:52 48.8 °F 29.4 °F 29.85 in South 5.0 mph 5.0 mph 47% 0.00 in 0 W/m2
15:58 48.6 °F 29.3 °F 29.85 in SE 3.0 mph 7.0 mph 47% 0.00 in 0 W/m2
16:04 48.4 °F 29.6 °F 29.85 in SE 2.0 mph 4.0 mph 48% 0.00 in 0 W/m2
16:10 48.1 °F 29.8 °F 29.84 in SSE 3.0 mph 3.0 mph 49% 0.00 in 0 W/m2
16:16 48.1 °F 29.8 °F 29.84 in SSE 3.0 mph 3.0 mph 49% 0.00 in 0 W/m2
16:22 48.2 °F 28.9 °F 29.84 in SSE 3.0 mph 5.0 mph 47% 0.00 in 0 W/m2
16:28 48.6 °F 29.3 °F 29.85 in SSW 3.0 mph 5.0 mph 47% 0.00 in 0 W/m2
16:34 49.0 °F 29.6 °F 29.86 in SSW 4.0 mph 4.0 mph 47% 0.00 in 0 W/m2
16:40 49.1 °F 29.7 °F 29.86 in South 3.0 mph 5.0 mph 47% 0.00 in 0 W/m2
16:52 48.1 °F 31.8 °F 29.88 in SW 2.0 mph 5.0 mph 53% 0.00 in 0 W/m2
16:58 47.9 °F 31.6 °F 29.88 in SSW 4.0 mph 5.0 mph 53% 0.00 in 0 W/m2
17:10 47.1 °F 32.6 °F 29.88 in SW 3.0 mph 3.0 mph 57% 0.00 in 0 W/m2
17:22 46.0 °F 34.5 °F 29.88 in SE 3.0 mph 6.0 mph 64% 0.06 in 0 W/m2
17:28 45.3 °F 35.0 °F 29.88 in South 2.0 mph 6.0 mph 67% 0.08 in 0 W/m2
17:34 44.9 °F 35.3 °F 29.88 in SSE 3.0 mph 4.0 mph 69% 0.06 in 0 W/m2
17:46 44.0 °F 36.2 °F 29.88 in South 2.0 mph 3.0 mph 74% 0.11 in 0 W/m2
17:52 43.6 °F 36.5 °F 29.88 in South 1.0 mph 2.0 mph 76% 0.11 in 0 W/m2
17:58 43.3 °F 36.9 °F 29.88 in South 1.0 mph 2.0 mph 78% 0.08 in 0 W/m2
18:04 43.1 °F 37.0 °F 29.88 in South 1.0 mph 2.0 mph 79% 0.07 in 0 W/m2
18:10 43.1 °F 37.3 °F 29.88 in South 2.0 mph 2.0 mph 80% 0.06 in 0 W/m2
18:16 43.0 °F 37.6 °F 29.89 in South 3.0 mph 3.0 mph 81% 0.05 in 0 W/m2
18:22 43.0 °F 37.9 °F 29.89 in South 3.0 mph 3.0 mph 82% 0.00 in 0 W/m2
18:28 42.8 °F 38.0 °F 29.89 in South 2.0 mph 3.0 mph 83% 0.00 in 0 W/m2
18:40 42.8 °F 38.0 °F 29.89 in SW 2.0 mph 2.0 mph 83% 0.00 in 0 W/m2
18:52 42.9 °F 37.8 °F 29.88 in South 3.0 mph 3.0 mph 82% 0.00 in 0 W/m2
18:58 43.0 °F 37.6 °F 29.89 in SW 3.0 mph 4.0 mph 81% 0.00 in 0 W/m2
19:10 42.9 °F 37.5 °F 29.89 in SW 3.0 mph 4.0 mph 81% 0.00 in 0 W/m2
19:16 42.9 °F 37.5 °F 29.89 in SSW 3.0 mph 4.0 mph 81% 0.00 in 0 W/m2
19:22 43.0 °F 37.6 °F 29.89 in South 2.0 mph 5.0 mph 81% 0.00 in 0 W/m2
19:28 43.0 °F 37.6 °F 29.89 in South 2.0 mph 5.0 mph 81% 0.00 in 0 W/m2
19:34 43.0 °F 37.6 °F 29.89 in South 2.0 mph 3.0 mph 81% 0.00 in 0 W/m2
19:40 43.0 °F 37.6 °F 29.89 in South 3.0 mph 3.0 mph 81% 0.00 in 0 W/m2
19:46 43.0 °F 37.6 °F 29.89 in South 3.0 mph 6.0 mph 81% 0.00 in 0 W/m2
19:52 43.2 °F 37.8 °F 29.90 in SW 3.0 mph 4.0 mph 81% 0.00 in 0 W/m2
19:58 43.5 °F 37.7 °F 29.90 in SW 3.0 mph 4.0 mph 80% 0.00 in 0 W/m2
20:04 43.8 °F 37.7 °F 29.90 in South 4.0 mph 8.0 mph 79% 0.00 in 0 W/m2
20:10 44.2 °F 37.4 °F 29.89 in SSW 5.0 mph 5.0 mph 77% 0.00 in 0 W/m2
20:16 44.4 °F 37.3 °F 29.90 in SSW 6.0 mph 6.0 mph 76% 0.00 in 0 W/m2
20:22 44.6 °F 37.5 °F 29.90 in SW 5.0 mph 7.0 mph 76% 0.00 in 0 W/m2
20:28 44.7 °F 37.3 °F 29.90 in SW 5.0 mph 7.0 mph 75% 0.00 in 0 W/m2
20:34 44.9 °F 37.5 °F 29.91 in SW 5.0 mph 6.0 mph 75% 0.00 in 0 W/m2
20:40 45.0 °F 37.2 °F 29.91 in South 6.0 mph 6.0 mph 74% 0.00 in 0 W/m2
20:46 44.9 °F 37.5 °F 29.91 in SSW 6.0 mph 7.0 mph 75% 0.00 in 0 W/m2
20:52 44.9 °F 37.5 °F 29.92 in SW 5.0 mph 5.0 mph 75% 0.00 in 0 W/m2
20:58 44.8 °F 37.7 °F 29.92 in WSW 5.0 mph 5.0 mph 76% 0.00 in 0 W/m2
21:04 44.9 °F 37.8 °F 29.93 in West 5.0 mph 9.0 mph 76% 0.00 in 0 W/m2
21:16 44.3 °F 37.9 °F 29.94 in NW 5.0 mph 8.0 mph 78% 0.00 in 0 W/m2
21:22 43.8 °F 37.7 °F 29.94 in West 4.0 mph 7.0 mph 79% 0.00 in 0 W/m2
21:28 43.4 °F 37.6 °F 29.94 in West 3.0 mph 7.0 mph 80% 0.00 in 0 W/m2
21:40 42.9 °F 37.2 °F 29.95 in WNW 3.0 mph 3.0 mph 80% 0.00 in 0 W/m2
21:46 42.7 °F 37.0 °F 29.94 in WSW 3.0 mph 3.0 mph 80% 0.00 in 0 W/m2
21:52 42.5 °F 36.8 °F 29.95 in WSW 2.0 mph 3.0 mph 80% 0.00 in 0 W/m2
22:10 42.1 °F 37.0 °F 29.96 in WSW 2.0 mph 3.0 mph 82% 0.00 in 0 W/m2
22:20 42.0 °F 36.9 °F 29.96 in SW 2.0 mph 2.0 mph 82% 0.00 in 0 W/m2
22:28 42.0 °F 36.9 °F 29.96 in WSW 1.0 mph 2.0 mph 82% 0.00 in 0 W/m2
22:46 42.3 °F 37.2 °F 29.97 in West 2.0 mph 5.0 mph 82% 0.00 in 0 W/m2
22:58 42.5 °F 37.1 °F 29.97 in WSW 2.0 mph 2.0 mph 81% 0.00 in 0 W/m2
23:00 42.5 °F 37.1 °F 29.97 in WSW 2.0 mph 3.0 mph 81% 0.00 in 0 W/m2
23:06 42.5 °F 37.1 °F 29.97 in SW 3.0 mph 5.0 mph 81% 0.00 in 0 W/m2
23:12 42.6 °F 37.2 °F 29.97 in WSW 3.0 mph 3.0 mph 81% 0.00 in 0 W/m2
23:16 42.6 °F 37.2 °F 29.97 in WSW 2.0 mph 3.0 mph 81% 0.00 in 0 W/m2
23:22 42.6 °F 37.2 °F 29.97 in WSW 2.0 mph 3.0 mph 81% 0.00 in 0 W/m2
23:34 42.5 °F 37.1 °F 29.97 in WSW 1.0 mph 4.0 mph 81% 0.00 in 0 W/m2
23:40 42.4 °F 37.0 °F 29.97 in WSW 1.0 mph 1.0 mph 81% 0.00 in 0 W/m2
23:52 42.2 °F 37.1 °F 29.97 in WSW 1.0 mph 1.0 mph 82% 0.00 in 0 W/m2
23:58 42.2 °F 37.1 °F 29.97 in WSW 2.0 mph 3.0 mph 82% 0.00 in 0 W/m2
Country Meadow, Clay, NY, USA
Compliments of Weather Underground - 2 mb